This is the latest recevied weather packets stored in our database for station/object AC5CM. If no packets are shown the sender has not sent any weather packets the latest 10 day(s).
| Time | Temp. | Humidity | Pressure | Rain* | Wind** | Luminosity | Snow |
|---|---|---|---|---|---|---|---|
| 1777916014 | 27.78° C | 55% | 1015.6 hPa | 0 mm | - | - | - |
| 1777915711 | 27.22° C | 53% | 1015.8 hPa | 0 mm | - | - | - |
| 1777915408 | 26.67° C | 56% | 1016 hPa | 0 mm | - | - | - |
| 1777915104 | 27.22° C | 54% | 1016 hPa | 0 mm | - | - | - |
| 1777914801 | 26.11° C | 58% | 1016 hPa | 0 mm | - | - | - |
| 1777914498 | 26.67° C | 55% | 1016.3 hPa | 0 mm | - | - | - |
| 1777914195 | 26.11° C | 56% | 1016.3 hPa | 0 mm | - | - | - |
| 1777913891 | 26.67° C | 56% | 1016.3 hPa | 0 mm | - | - | - |
| 1777913284 | 26.67° C | 58% | 1016.3 hPa | 0 mm | - | - | - |
| 1777912981 | 26.67° C | 57% | 1016.3 hPa | 0 mm | - | - | - |
| 1777912677 | 26.67° C | 55% | 1016.5 hPa | 0 mm | - | - | - |
| 1777912373 | 27.22° C | 55% | 1016.4 hPa | 0 mm | - | - | - |
| 1777912069 | 26.67° C | 58% | 1016.6 hPa | 0 mm | - | - | - |
| 1777911462 | 26.67° C | 57% | 1016.7 hPa | 0 mm | - | - | - |
| 1777911159 | 26.11° C | 59% | 1016.8 hPa | 0 mm | - | - | - |
| 1777910857 | 26.67° C | 58% | 1016.9 hPa | 0 mm | - | - | - |
| 1777910553 | 26.67° C | 56% | 1017 hPa | 0 mm | - | - | - |
| 1777910251 | 25.56° C | 61% | 1016.9 hPa | 0 mm | - | - | - |
| 1777909644 | 25° C | 61% | 1017 hPa | 0 mm | - | - | - |
| 1777909342 | 25° C | 61% | 1016.9 hPa | 0 mm | - | - | - |
| 1777909039 | 25.56° C | 61% | 1016.8 hPa | 0 mm | - | - | - |
| 1777908737 | 26.11° C | 60% | 1016.8 hPa | 0 mm | - | - | - |
| 1777908434 | 25.56° C | 60% | 1017 hPa | 0 mm | - | - | - |
| 1777908130 | 25° C | 62% | 1016.8 hPa | 0 mm | - | - | - |
| 1777907522 | 25.56° C | 60% | 1016.7 hPa | 0 mm | - | - | - |
* Rain latest hour (hover to see other rain measurements)
** Current wind speed in m/s (hover to see current wind gust speed)